createdAt,value
2022-12-31T00:00:02.396Z,100352.22
2022-12-31T00:01:08.398Z,100351.52
2022-12-31T00:02:11.113Z,100358.92
2022-12-31T00:03:13.952Z,100360.14
2022-12-31T00:04:16.681Z,100356.08
2022-12-31T00:05:19.347Z,100355.63
2022-12-31T00:06:32.479Z,100359.55
2022-12-31T00:08:38.592Z,100366.48
2022-12-31T00:09:41.925Z,100366.88
2022-12-31T00:10:44.618Z,100355.85
2022-12-31T00:11:47.119Z,100363.36
2022-12-31T00:12:49.548Z,100366.57
2022-12-31T00:13:52.385Z,100364.45
2022-12-31T00:14:54.891Z,100357.92
2022-12-31T00:17:18.410Z,100361.96
2022-12-31T00:18:20.595Z,100367.61
2022-12-31T00:19:23.524Z,100371.84
2022-12-31T00:20:27.971Z,100367.21
2022-12-31T00:21:32.223Z,100372.20
2022-12-31T00:22:34.682Z,100373.86
2022-12-31T00:23:36.983Z,100370.07
2022-12-31T00:24:39.856Z,100370.78
2022-12-31T00:25:42.239Z,100366.11
2022-12-31T00:26:46.203Z,100373.10
2022-12-31T00:27:49.410Z,100366.73
2022-12-31T00:28:52.812Z,100366.55
2022-12-31T00:29:59.467Z,100369.08
2022-12-31T00:32:24.322Z,100369.96
2022-12-31T00:33:26.612Z,100381.19
2022-12-31T00:34:29.015Z,100376.60
2022-12-31T00:35:34.263Z,100372.98
2022-12-31T00:36:39.082Z,100375.48
2022-12-31T00:37:41.447Z,100372.64
2022-12-31T00:38:46.165Z,100380.56
2022-12-31T00:39:48.566Z,100382.20
2022-12-31T00:40:50.964Z,100379.45
2022-12-31T00:41:53.252Z,100384.70
2022-12-31T00:42:55.844Z,100381.94
2022-12-31T00:43:58.882Z,100383.58
2022-12-31T00:45:01.775Z,100382.64
2022-12-31T00:46:06.360Z,100378.09
2022-12-31T00:47:09.218Z,100378.00
2022-12-31T00:48:11.533Z,100382.38
2022-12-31T00:49:14.153Z,100381.43
2022-12-31T00:50:18.286Z,100383.16
2022-12-31T00:51:22.670Z,100384.02
2022-12-31T00:52:25.114Z,100383.92
2022-12-31T00:53:27.936Z,100380.31
2022-12-31T00:54:30.493Z,100385.56
2022-12-31T00:55:32.678Z,100385.47
2022-12-31T00:56:35.393Z,100386.45
2022-12-31T00:57:38.034Z,100377.73
2022-12-31T00:58:40.323Z,100376.78
2022-12-31T00:59:43.165Z,100376.78
2022-12-31T01:00:45.697Z,100395.14
2022-12-31T01:01:51.343Z,100390.67
2022-12-31T01:02:53.902Z,100390.58
2022-12-31T01:05:17.069Z,100397.91
2022-12-31T01:06:20.452Z,100395.84
2022-12-31T01:07:23.429Z,100396.78
2022-12-31T01:08:25.941Z,100392.28
2022-12-31T01:09:28.970Z,100398.52
2022-12-31T01:10:50.950Z,100403.86
2022-12-31T01:11:53.710Z,100404.71
2022-12-31T01:12:56.125Z,100406.44
2022-12-31T01:14:07.812Z,100400.16
2022-12-31T01:15:10.695Z,100403.77
2022-12-31T01:16:14.968Z,100403.77
2022-12-31T01:17:18.802Z,100407.38
2022-12-31T01:18:22.681Z,100407.38
2022-12-31T01:19:27.055Z,100408.23
2022-12-31T01:20:29.797Z,100413.58
2022-12-31T01:21:32.385Z,100408.23
2022-12-31T01:22:34.564Z,100409.12
2022-12-31T01:23:36.866Z,100412.64
2022-12-31T01:24:41.269Z,100409.97
2022-12-31T01:25:44.566Z,100409.97
2022-12-31T01:26:47.270Z,100413.52
2022-12-31T01:27:49.564Z,100414.28
2022-12-31T01:28:51.856Z,100407.11
2022-12-31T01:29:54.145Z,100408.84
2022-12-31T01:30:57.354Z,100412.41
2022-12-31T01:31:59.776Z,100419.45
2022-12-31T01:33:02.394Z,100422.03
2022-12-31T01:34:07.355Z,100419.30
2022-12-31T01:35:09.881Z,100414.80
2022-12-31T01:37:28.151Z,100412.19
2022-12-31T01:38:30.742Z,100412.80
2022-12-31T01:39:32.932Z,100404.77
2022-12-31T01:41:50.376Z,100411.15
2022-12-31T01:42:56.171Z,100409.09
2022-12-31T01:45:16.876Z,100411.06
2022-12-31T01:46:38.347Z,100417.02
2022-12-31T01:47:47.201Z,100414.28
2022-12-31T01:48:51.412Z,100415.14
2022-12-31T01:51:10.611Z,100412.64
2022-12-31T01:53:28.340Z,100402.87
2022-12-31T01:54:31.655Z,100412.38
2022-12-31T01:56:52.267Z,100412.55
2022-12-31T01:57:58.364Z,100414.95
2022-12-31T01:59:01.041Z,100417.53
2022-12-31T02:00:04.979Z,100419.27
2022-12-31T02:01:08.134Z,100410.39
2022-12-31T02:02:11.607Z,100420.12
2022-12-31T02:03:14.119Z,100420.91
2022-12-31T02:04:16.448Z,100420.91
2022-12-31T02:06:42.651Z,100420.33
2022-12-31T02:07:44.985Z,100424.38
2022-12-31T02:08:47.924Z,100420.81
2022-12-31T02:09:51.368Z,100417.23
2022-12-31T02:10:53.981Z,100428.78
2022-12-31T02:11:56.887Z,100424.28
2022-12-31T02:13:00.086Z,100426.02
2022-12-31T02:14:06.077Z,100428.69
2022-12-31T02:15:09.384Z,100434.92
2022-12-31T02:17:33.798Z,100432.48
2022-12-31T02:20:27.865Z,100427.98
2022-12-31T02:21:36.771Z,100434.73
2022-12-31T02:23:11.651Z,100441.88
2022-12-31T02:24:33.336Z,100438.36
2022-12-31T02:27:07.113Z,100436.01
2022-12-31T02:29:52.018Z,100436.09
2022-12-31T02:30:57.855Z,100442.95
2022-12-31T02:32:03.553Z,100450.19
2022-12-31T02:34:54.779Z,100448.69
2022-12-31T02:36:02.690Z,100444.89
2022-12-31T02:37:07.856Z,100452.06
2022-12-31T02:38:13.760Z,100453.01
2022-12-31T02:39:16.408Z,100454.74
2022-12-31T02:40:21.320Z,100451.19
2022-12-31T02:41:42.694Z,100451.19
2022-12-31T02:42:48.676Z,100455.59
2022-12-31T02:43:51.505Z,100460.16
2022-12-31T02:44:54.001Z,100464.56
2022-12-31T02:46:17.904Z,100470.85
2022-12-31T02:48:42.737Z,100460.45
2022-12-31T02:50:23.856Z,100467.23
2022-12-31T02:51:46.991Z,100467.33
2022-12-31T02:52:56.124Z,100469.15
2022-12-31T02:54:11.984Z,100470.94
2022-12-31T02:57:04.193Z,100466.94
2022-12-31T02:58:16.306Z,100470.19
2022-12-31T02:59:46.154Z,100464.92
2022-12-31T03:01:09.838Z,100464.04
2022-12-31T03:02:15.237Z,100475.72
2022-12-31T03:03:20.136Z,100465.95
2022-12-31T03:04:31.703Z,100470.45
2022-12-31T03:05:37.682Z,100473.98
2022-12-31T03:06:40.643Z,100467.78
2022-12-31T03:07:43.203Z,100473.98
2022-12-31T03:09:04.062Z,100468.63
2022-12-31T03:10:09.386Z,100467.69
2022-12-31T03:11:13.580Z,100465.02
2022-12-31T03:12:35.691Z,100465.86
2022-12-31T03:13:37.946Z,100464.04
2022-12-31T03:14:41.316Z,100463.01
2022-12-31T03:15:44.333Z,100455.77
2022-12-31T03:16:48.503Z,100461.97
2022-12-31T03:18:04.290Z,100461.97
2022-12-31T03:19:25.727Z,100453.86
2022-12-31T03:20:54.927Z,100462.77
2022-12-31T03:22:15.790Z,100461.83
2022-12-31T03:23:27.415Z,100459.16
2022-12-31T03:24:49.248Z,100456.48
2022-12-31T03:25:52.705Z,100458.27
2022-12-31T03:26:55.162Z,100464.56
2022-12-31T03:27:57.363Z,100460.09
2022-12-31T03:29:01.095Z,100458.36
2022-12-31T03:30:04.777Z,100467.23
2022-12-31T03:31:07.407Z,100460.33
2022-12-31T03:32:11.288Z,100460.33
2022-12-31T03:33:14.487Z,100466.30
2022-12-31T03:34:16.782Z,100473.41
2022-12-31T03:35:20.031Z,100468.06
2022-12-31T03:36:22.477Z,100474.17
2022-12-31T03:37:24.862Z,100472.38
2022-12-31T03:38:27.174Z,100470.55
2022-12-31T03:39:30.561Z,100471.41
2022-12-31T03:40:35.552Z,100473.13
2022-12-31T03:41:37.935Z,100465.02
2022-12-31T03:42:41.809Z,100465.91
2022-12-31T03:43:45.139Z,100473.84
2022-12-31T03:44:48.124Z,100470.19
2022-12-31T03:45:52.259Z,100468.39
2022-12-31T03:46:54.759Z,100465.72
2022-12-31T03:47:59.087Z,100469.24
2022-12-31T03:49:01.528Z,100467.42
2022-12-31T03:50:05.470Z,100464.74
2022-12-31T03:51:08.324Z,100465.53
2022-12-31T03:52:11.301Z,100467.36
2022-12-31T03:53:13.716Z,100464.59
2022-12-31T03:54:16.101Z,100462.77
2022-12-31T03:55:18.803Z,100461.91
2022-12-31T03:56:21.670Z,100468.12
2022-12-31T03:57:25.089Z,100474.32
2022-12-31T03:58:27.816Z,100460.37
2022-12-31T03:59:32.116Z,100460.37
2022-12-31T04:00:35.078Z,100471.64
2022-12-31T04:01:38.061Z,100464.50
2022-12-31T04:02:41.123Z,100469.85
2022-12-31T04:03:45.054Z,100469.85
2022-12-31T04:04:48.425Z,100470.70
2022-12-31T04:07:06.701Z,100469.23
2022-12-31T04:08:08.872Z,100475.20
2022-12-31T04:09:11.228Z,100475.20
2022-12-31T04:10:16.215Z,100470.70
2022-12-31T04:11:21.219Z,100468.02
2022-12-31T04:12:24.401Z,100473.38
2022-12-31T04:13:26.744Z,100471.58
2022-12-31T04:14:29.258Z,100480.46
2022-12-31T04:15:31.693Z,100477.78
2022-12-31T04:16:34.978Z,100483.14
2022-12-31T04:17:37.321Z,100483.14
2022-12-31T04:18:39.616Z,100485.81
2022-12-31T04:19:42.522Z,100481.31
2022-12-31T04:20:46.687Z,100483.14
2022-12-31T04:21:48.978Z,100492.98
2022-12-31T04:22:52.201Z,100492.90
2022-12-31T04:23:54.938Z,100491.16
2022-12-31T04:24:57.878Z,100504.55
2022-12-31T04:26:01.786Z,100497.37
2022-12-31T04:27:08.080Z,100506.38
2022-12-31T04:28:10.688Z,100506.38
2022-12-31T04:29:13.960Z,100499.19
2022-12-31T04:30:16.516Z,100508.07
2022-12-31T04:31:18.950Z,100504.55
2022-12-31T04:32:21.484Z,100509.90
2022-12-31T04:33:24.311Z,100509.90
2022-12-31T04:34:26.665Z,100508.07
2022-12-31T04:35:30.575Z,100508.07
2022-12-31T04:36:33.227Z,100521.45
2022-12-31T04:37:36.349Z,100510.75
2022-12-31T04:38:38.700Z,100516.98
2022-12-31T04:39:41.045Z,100519.66
2022-12-31T04:41:04.843Z,100516.89
2022-12-31T04:42:08.667Z,100521.36
2022-12-31T04:43:11.392Z,100523.09
2022-12-31T04:44:13.581Z,100525.86
2022-12-31T04:45:16.139Z,100523.19
2022-12-31T04:46:20.505Z,100528.53
2022-12-31T04:47:24.031Z,100527.69
2022-12-31T04:48:27.072Z,100518.68
2022-12-31T04:49:30.055Z,100523.19
2022-12-31T04:50:33.668Z,100520.60
2022-12-31T04:51:36.275Z,100525.02
2022-12-31T04:52:42.865Z,100530.36
2022-12-31T04:53:43.394Z,100533.04
2022-12-31T04:54:46.821Z,100527.69
2022-12-31T04:55:49.283Z,100529.39
2022-12-31T04:56:51.808Z,100525.02
2022-12-31T04:57:54.211Z,100528.53
2022-12-31T04:58:57.287Z,100536.56
2022-12-31T04:59:59.702Z,100525.86
2022-12-31T05:01:02.289Z,100519.66
2022-12-31T05:02:05.017Z,100512.75
2022-12-31T05:03:08.460Z,100512.75
2022-12-31T05:04:10.960Z,100527.69
2022-12-31T05:05:13.941Z,100529.48
2022-12-31T05:06:18.804Z,100533.89
2022-12-31T05:07:21.339Z,100527.69
2022-12-31T05:08:24.574Z,100527.69
2022-12-31T05:09:27.738Z,100527.69
2022-12-31T05:10:30.774Z,100533.89
2022-12-31T05:11:35.540Z,100534.73
2022-12-31T05:12:38.707Z,100534.73
2022-12-31T05:13:42.349Z,100541.91
2022-12-31T05:14:45.687Z,100545.44
2022-12-31T05:15:48.461Z,100544.59
2022-12-31T05:16:51.508Z,100544.59
2022-12-31T05:17:54.492Z,100536.56
2022-12-31T05:18:56.939Z,100538.30
2022-12-31T05:19:59.336Z,100534.73
2022-12-31T05:21:02.227Z,100544.50
2022-12-31T05:22:24.368Z,100544.50
2022-12-31T05:23:26.867Z,100547.17
2022-12-31T05:24:29.536Z,100550.73
2022-12-31T05:25:31.964Z,100545.39
2022-12-31T05:26:34.490Z,100545.39
2022-12-31T05:27:37.793Z,100549.00
2022-12-31T05:28:40.865Z,100547.17
2022-12-31T05:29:43.288Z,100555.11
2022-12-31T05:30:48.235Z,100551.86
2022-12-31T05:31:51.787Z,100551.86
2022-12-31T05:32:55.182Z,100555.20
2022-12-31T05:33:59.279Z,100558.77
2022-12-31T05:35:01.753Z,100558.77
2022-12-31T05:36:05.165Z,100561.35
2022-12-31T05:37:08.573Z,100563.14
2022-12-31T05:38:11.559Z,100562.20
2022-12-31T05:39:15.845Z,100560.47
2022-12-31T05:40:19.007Z,100555.11
2022-12-31T05:41:21.360Z,100552.44
2022-12-31T05:42:23.744Z,100539.94
2022-12-31T05:43:26.915Z,100549.77
2022-12-31T05:44:29.366Z,100540.80
2022-12-31T05:45:31.659Z,100549.77
2022-12-31T05:46:34.891Z,100543.47
2022-12-31T05:47:37.817Z,100551.50
2022-12-31T05:48:40.219Z,100552.34
2022-12-31T05:49:43.447Z,100549.67
2022-12-31T05:50:46.880Z,100555.03
2022-12-31T05:51:51.217Z,100542.62
2022-12-31T05:52:53.558Z,100547.97
2022-12-31T05:53:58.477Z,100549.77
2022-12-31T05:55:01.752Z,100539.06
2022-12-31T05:56:06.133Z,100549.77
2022-12-31T05:57:09.985Z,100548.06
2022-12-31T05:58:13.298Z,100549.85
2022-12-31T05:59:15.979Z,100549.85
2022-12-31T06:00:19.238Z,100549.00
2022-12-31T06:01:22.712Z,100554.36
2022-12-31T06:02:25.738Z,100549.95
2022-12-31T06:03:29.306Z,100557.97
2022-12-31T06:04:31.973Z,100554.45
2022-12-31T06:05:34.711Z,100554.45
2022-12-31T06:06:39.251Z,100550.03
2022-12-31T06:07:41.699Z,100555.38
2022-12-31T06:08:44.254Z,100553.66
2022-12-31T06:09:46.752Z,100553.66
2022-12-31T06:10:49.812Z,100550.13
2022-12-31T06:11:52.490Z,100554.59
2022-12-31T06:12:54.855Z,100554.59
2022-12-31T06:13:57.863Z,100555.56
2022-12-31T06:15:00.215Z,100554.69
2022-12-31T06:16:06.862Z,100550.30
2022-12-31T06:17:09.401Z,100554.69
2022-12-31T06:18:11.709Z,100554.69
2022-12-31T06:19:14.640Z,100551.16
2022-12-31T06:20:18.924Z,100552.98
2022-12-31T06:21:22.191Z,100552.09
2022-12-31T06:22:24.583Z,100552.09
2022-12-31T06:23:26.901Z,100554.77
2022-12-31T06:24:29.581Z,100557.45
2022-12-31T06:25:34.412Z,100555.66
2022-12-31T06:26:37.418Z,100560.13
2022-12-31T06:27:40.247Z,100560.13
2022-12-31T06:28:42.839Z,100562.71
2022-12-31T06:29:46.993Z,100562.80
2022-12-31T06:30:50.870Z,100568.06
2022-12-31T06:31:53.895Z,100564.53
2022-12-31T06:32:57.317Z,100562.71
2022-12-31T06:33:59.970Z,100567.21
2022-12-31T06:35:03.007Z,100565.39
2022-12-31T06:36:09.290Z,100562.71
2022-12-31T06:37:11.791Z,100560.92
2022-12-31T06:38:16.102Z,100568.95
2022-12-31T06:39:19.912Z,100558.24
2022-12-31T06:40:22.406Z,100562.63
2022-12-31T06:41:25.405Z,100562.63
2022-12-31T06:42:31.340Z,100559.95
2022-12-31T06:43:34.401Z,100559.95
2022-12-31T06:44:36.809Z,100564.36
2022-12-31T06:45:39.750Z,100571.53
2022-12-31T06:46:43.907Z,100569.70
2022-12-31T06:47:46.938Z,100572.38
2022-12-31T06:48:52.082Z,100581.30
2022-12-31T06:49:54.818Z,100576.80
2022-12-31T06:50:59.392Z,100577.73
2022-12-31T06:52:02.048Z,100578.62
2022-12-31T06:53:04.387Z,100589.32
2022-12-31T06:54:06.750Z,100586.64
2022-12-31T06:55:10.642Z,100589.32
2022-12-31T06:57:31.463Z,100587.66
2022-12-31T06:58:35.165Z,100594.58
2022-12-31T06:59:39.054Z,100586.55
2022-12-31T07:00:44.987Z,100585.67
2022-12-31T07:02:25.592Z,100590.09
2022-12-31T07:03:46.593Z,100587.41
2022-12-31T07:06:53.910Z,100588.61
2022-12-31T07:08:12.117Z,100591.20
2022-12-31T07:09:27.894Z,100592.14
2022-12-31T07:10:50.128Z,100593.97
2022-12-31T07:12:06.907Z,100589.55
2022-12-31T07:13:47.995Z,100587.83
2022-12-31T07:14:54.699Z,100590.50
2022-12-31T07:16:20.817Z,100587.91
2022-12-31T07:19:16.314Z,100591.02
2022-12-31T07:20:21.445Z,100594.32
2022-12-31T07:21:35.378Z,100591.65
2022-12-31T07:22:39.100Z,100589.03
2022-12-31T07:23:43.046Z,100592.59
2022-12-31T07:24:46.334Z,100593.53
2022-12-31T07:27:38.618Z,100590.17
2022-12-31T07:29:00.120Z,100596.03
2022-12-31T07:30:06.449Z,100591.56
2022-12-31T07:31:19.646Z,100597.84
2022-12-31T07:32:48.041Z,100607.61
2022-12-31T07:33:59.920Z,100605.78
2022-12-31T07:35:18.676Z,100605.78
2022-12-31T07:36:28.852Z,100607.52
2022-12-31T07:37:51.683Z,100605.78
2022-12-31T07:40:31.647Z,100610.55
2022-12-31T07:41:55.959Z,100606.64
2022-12-31T07:44:50.718Z,100600.79
2022-12-31T07:45:57.246Z,100602.27
2022-12-31T07:47:01.068Z,100605.02
2022-12-31T07:48:04.587Z,100597.94
2022-12-31T07:50:26.150Z,100606.32
2022-12-31T07:51:31.105Z,100606.91
2022-12-31T07:52:34.853Z,100599.81
2022-12-31T07:53:37.549Z,100606.99
2022-12-31T07:54:39.869Z,100606.14
2022-12-31T07:55:42.600Z,100606.14
2022-12-31T07:56:45.418Z,100610.52
2022-12-31T07:59:29.724Z,100610.02
2022-12-31T08:00:33.971Z,100614.17
2022-12-31T08:01:43.400Z,100616.90
2022-12-31T08:03:16.320Z,100621.40
2022-12-31T08:04:38.915Z,100616.09
2022-12-31T08:07:32.327Z,100617.52
2022-12-31T08:08:53.183Z,100614.54
2022-12-31T08:10:12.532Z,100619.13
2022-12-31T08:11:33.023Z,100621.85
2022-12-31T08:12:35.883Z,100623.77
2022-12-31T08:13:39.953Z,100626.52
2022-12-31T08:14:44.989Z,100624.79
2022-12-31T08:15:48.271Z,100631.96
2022-12-31T08:16:52.967Z,100630.23
2022-12-31T08:17:56.271Z,100624.88
2022-12-31T08:19:00.274Z,100626.70
2022-12-31T08:20:05.088Z,100619.53
2022-12-31T08:21:37.261Z,100623.05
2022-12-31T08:22:50.461Z,100619.44
2022-12-31T08:24:16.383Z,100615.91
2022-12-31T08:26:53.157Z,100617.04
2022-12-31T08:29:18.230Z,100617.98
2022-12-31T08:30:21.500Z,100623.94
2022-12-31T08:31:54.125Z,100622.11
2022-12-31T08:33:01.502Z,100620.30
2022-12-31T08:34:25.034Z,100621.09
2022-12-31T08:35:34.112Z,100618.33
2022-12-31T08:36:44.063Z,100614.80
2022-12-31T08:39:45.560Z,100610.61
2022-12-31T08:42:54.839Z,100610.61
2022-12-31T08:44:19.370Z,100612.12
2022-12-31T08:46:41.942Z,100613.37
2022-12-31T08:49:38.481Z,100611.55
2022-12-31T08:50:42.969Z,100602.36
2022-12-31T08:51:45.870Z,100599.69
2022-12-31T08:52:48.941Z,100600.55
2022-12-31T08:53:54.777Z,100604.10
2022-12-31T08:54:58.554Z,100605.80
2022-12-31T08:57:23.153Z,100601.55
2022-12-31T08:58:44.107Z,100593.14
2022-12-31T09:00:07.423Z,100592.20
2022-12-31T09:01:09.953Z,100588.55
2022-12-31T09:02:32.793Z,100589.44
2022-12-31T09:03:51.017Z,100587.70
2022-12-31T09:05:04.160Z,100585.83
2022-12-31T09:06:27.271Z,100581.41
2022-12-31T09:07:38.217Z,100589.44
2022-12-31T09:09:02.343Z,100584.94
2022-12-31T09:10:18.248Z,100587.61
2022-12-31T09:11:47.278Z,100580.53
2022-12-31T09:12:59.421Z,100582.35
2022-12-31T09:14:29.309Z,100574.33
2022-12-31T09:15:35.988Z,100582.44
2022-12-31T09:16:42.513Z,100576.23
2022-12-31T09:17:49.217Z,100570.89
2022-12-31T09:18:51.671Z,100570.00
2022-12-31T09:19:54.656Z,100581.59
2022-12-31T09:20:58.147Z,100577.09
2022-12-31T09:22:03.176Z,100577.09
2022-12-31T09:23:06.258Z,100578.83
2022-12-31T09:24:12.163Z,100570.80
2022-12-31T09:25:16.904Z,100576.06
2022-12-31T09:26:29.493Z,100569.77
2022-12-31T09:27:37.729Z,100564.42
2022-12-31T09:30:04.268Z,100570.83
2022-12-31T09:31:10.276Z,100564.27
2022-12-31T09:32:16.409Z,100570.56
2022-12-31T09:33:49.584Z,100565.13
2022-12-31T09:35:29.726Z,100571.36
2022-12-31T09:37:56.835Z,100568.06
2022-12-31T09:39:05.542Z,100574.98
2022-12-31T09:40:32.869Z,100569.63
2022-12-31T09:41:43.078Z,100569.63
2022-12-31T09:44:34.427Z,100562.80
2022-12-31T09:45:57.559Z,100558.92
2022-12-31T09:47:21.677Z,100563.39
2022-12-31T09:48:51.010Z,100555.37
2022-12-31T09:50:13.221Z,100559.02
2022-12-31T09:51:25.791Z,100559.92
2022-12-31T09:52:52.000Z,100565.27
2022-12-31T09:54:12.800Z,100560.86
2022-12-31T09:55:48.123Z,100561.80
2022-12-31T09:57:02.997Z,100558.36
2022-12-31T09:58:27.460Z,100559.30
2022-12-31T10:00:50.293Z,100556.07
2022-12-31T10:02:16.646Z,100554.92
2022-12-31T10:03:31.435Z,100557.60
2022-12-31T10:04:41.284Z,100551.38
2022-12-31T10:05:59.364Z,100553.95
2022-12-31T10:07:25.322Z,100545.93
2022-12-31T10:08:43.483Z,100547.66
2022-12-31T10:10:06.326Z,100551.19
2022-12-31T10:11:22.522Z,100544.98
2022-12-31T10:12:48.969Z,100540.49
2022-12-31T10:14:25.003Z,100538.79
2022-12-31T10:16:04.530Z,100536.97
2022-12-31T10:17:26.461Z,100530.77
2022-12-31T10:19:00.649Z,100526.36
2022-12-31T10:20:41.554Z,100518.42
2022-12-31T10:23:46.159Z,100514.39
2022-12-31T10:25:16.850Z,100517.63
2022-12-31T10:26:29.272Z,100517.72
2022-12-31T10:27:35.501Z,100513.30
2022-12-31T10:28:58.244Z,100506.16
2022-12-31T10:31:36.872Z,100492.13
2022-12-31T10:32:46.088Z,100495.38
2022-12-31T10:34:07.731Z,100489.09
2022-12-31T10:37:12.587Z,100486.52
2022-12-31T10:38:55.004Z,100492.44
2022-12-31T10:40:11.019Z,100492.34
2022-12-31T10:43:27.592Z,100488.06
2022-12-31T10:44:57.880Z,100488.63
2022-12-31T10:46:31.356Z,100491.31
2022-12-31T10:47:45.670Z,100492.20
2022-12-31T10:50:31.235Z,100490.73
2022-12-31T10:53:21.445Z,100495.15
2022-12-31T10:54:34.392Z,100488.58
2022-12-31T10:56:15.226Z,100482.28
2022-12-31T10:57:30.221Z,100484.87
2022-12-31T10:58:39.380Z,100483.92
2022-12-31T10:59:48.601Z,100479.42
2022-12-31T11:01:20.827Z,100474.08
2022-12-31T11:02:36.679Z,100473.13
2022-12-31T11:03:49.407Z,100478.39
2022-12-31T11:05:14.803Z,100469.52
2022-12-31T11:06:30.545Z,100474.87
2022-12-31T11:08:01.991Z,100474.87
2022-12-31T11:09:35.587Z,100480.31
2022-12-31T11:10:53.672Z,100480.41
2022-12-31T11:12:20.569Z,100481.34
2022-12-31T11:13:38.954Z,100474.26
2022-12-31T11:14:48.626Z,100468.12
2022-12-31T11:16:07.079Z,100468.17
2022-12-31T11:17:34.820Z,100465.59
2022-12-31T11:18:50.101Z,100464.73
2022-12-31T11:20:29.722Z,100458.54
2022-12-31T11:21:54.813Z,100455.87
2022-12-31T11:23:03.965Z,100460.42
2022-12-31T11:24:42.180Z,100453.34
2022-12-31T11:27:36.771Z,100455.59
2022-12-31T11:28:43.912Z,100451.88
2022-12-31T11:29:51.115Z,100456.38
2022-12-31T11:30:57.403Z,100454.64
2022-12-31T11:32:24.799Z,100459.05
2022-12-31T11:34:05.680Z,100455.53
2022-12-31T11:35:17.703Z,100456.28
2022-12-31T11:36:37.235Z,100450.00
2022-12-31T11:39:59.559Z,100457.36
2022-12-31T11:41:17.003Z,100453.43
2022-12-31T11:42:41.952Z,100449.11
2022-12-31T11:44:13.334Z,100448.27
2022-12-31T11:45:28.325Z,100446.44
2022-12-31T11:46:41.566Z,100445.59
2022-12-31T11:48:29.130Z,100442.06
2022-12-31T11:49:29.405Z,100439.30
2022-12-31T11:50:38.349Z,100434.80
2022-12-31T11:52:21.445Z,100431.27
2022-12-31T11:53:30.446Z,100425.92
2022-12-31T11:54:53.857Z,100432.12
2022-12-31T11:56:06.024Z,100406.08
2022-12-31T11:57:22.089Z,100429.45
2022-12-31T11:58:26.431Z,100428.60
2022-12-31T11:59:28.886Z,100428.60
2022-12-31T12:00:33.303Z,100424.98
2022-12-31T12:02:01.905Z,100424.10
2022-12-31T12:03:05.475Z,100423.16
2022-12-31T12:04:09.945Z,100423.07
2022-12-31T12:05:15.392Z,100420.39
2022-12-31T12:06:21.246Z,100429.27
2022-12-31T12:07:23.699Z,100433.67
2022-12-31T12:08:26.929Z,100426.53
2022-12-31T12:09:30.808Z,100430.91
2022-12-31T12:10:46.778Z,100433.49
2022-12-31T12:11:53.509Z,100434.38
2022-12-31T12:12:57.974Z,100430.66
2022-12-31T12:14:01.527Z,100422.58
2022-12-31T12:15:10.466Z,100427.84
2022-12-31T12:16:13.611Z,100435.77
2022-12-31T12:18:49.393Z,100419.77
2022-12-31T12:19:56.281Z,100408.74
2022-12-31T12:21:16.790Z,100410.38
2022-12-31T12:22:22.846Z,100408.55
2022-12-31T12:23:25.866Z,100405.82
2022-12-31T12:24:28.936Z,100403.99
2022-12-31T12:25:41.935Z,100401.31
2022-12-31T12:26:46.391Z,100403.14
2022-12-31T12:27:52.122Z,100408.50
2022-12-31T12:28:55.726Z,100406.67
2022-12-31T12:29:59.608Z,100401.41
2022-12-31T12:31:05.685Z,100399.59
2022-12-31T12:32:25.217Z,100397.80
2022-12-31T12:33:30.243Z,100395.11
2022-12-31T12:34:35.209Z,100402.26
2022-12-31T12:35:39.271Z,100393.39
2022-12-31T12:36:47.907Z,100400.47
2022-12-31T12:37:59.178Z,100397.80
2022-12-31T12:39:04.789Z,100395.11
2022-12-31T12:40:17.897Z,100395.11
2022-12-31T12:41:24.689Z,100399.59
2022-12-31T12:42:28.073Z,100395.11
2022-12-31T12:43:36.268Z,100390.52
2022-12-31T12:44:39.643Z,100402.08
2022-12-31T12:45:51.468Z,100398.45
2022-12-31T12:46:50.894Z,100400.19
2022-12-31T12:49:28.831Z,100406.45
2022-12-31T12:52:12.313Z,100394.67
2022-12-31T12:55:24.892Z,100388.28
2022-12-31T12:56:36.730Z,100385.39
2022-12-31T12:57:42.943Z,100380.03
2022-12-31T12:59:12.605Z,100379.19
2022-12-31T13:00:20.694Z,100372.95
2022-12-31T13:01:30.404Z,100379.19
2022-12-31T13:02:40.136Z,100379.19
2022-12-31T13:05:13.391Z,100389.02
2022-12-31T13:06:25.503Z,100383.75
2022-12-31T13:07:40.735Z,100389.98
2022-12-31T13:09:05.181Z,100390.84
2022-12-31T13:11:52.073Z,100394.61
2022-12-31T13:13:23.463Z,100395.34
2022-12-31T13:14:37.757Z,100407.74
2022-12-31T13:15:52.391Z,100411.30
2022-12-31T13:17:13.567Z,100416.56
2022-12-31T13:19:44.029Z,100414.95
2022-12-31T13:21:02.027Z,100411.11
2022-12-31T13:22:06.768Z,100414.64
2022-12-31T13:23:40.080Z,100420.78
2022-12-31T13:24:56.699Z,100417.16
2022-12-31T13:27:37.812Z,100413.76
2022-12-31T13:28:42.315Z,100416.09
2022-12-31T13:29:44.925Z,100412.56
2022-12-31T13:30:49.632Z,100402.70
2022-12-31T13:31:55.245Z,100407.11
2022-12-31T13:33:18.630Z,100408.84
2022-12-31T13:34:26.324Z,100400.72
2022-12-31T13:35:31.992Z,100399.77
2022-12-31T13:36:35.215Z,100392.59
2022-12-31T13:37:40.180Z,100399.68
2022-12-31T13:38:53.087Z,100390.70
2022-12-31T13:40:03.029Z,100396.91
2022-12-31T13:41:23.111Z,100398.64
2022-12-31T13:42:47.092Z,100392.34
2022-12-31T13:44:17.075Z,100394.04
2022-12-31T13:45:29.838Z,100386.89
2022-12-31T13:46:58.652Z,100389.66
2022-12-31T13:49:26.893Z,100388.33
2022-12-31T13:50:34.144Z,100388.12
2022-12-31T13:51:45.822Z,100395.27
2022-12-31T13:53:01.767Z,100397.20
2022-12-31T13:54:17.795Z,100389.27
2022-12-31T13:55:23.783Z,100390.20
2022-12-31T13:56:29.004Z,100389.32
2022-12-31T13:57:37.957Z,100384.06
2022-12-31T13:59:58.964Z,100384.38
2022-12-31T14:04:05.671Z,100381.70
2022-12-31T14:05:32.617Z,100377.11
2022-12-31T14:08:09.330Z,100370.33
2022-12-31T14:09:18.915Z,100366.66
2022-12-31T14:12:11.008Z,100371.56
2022-12-31T14:13:37.210Z,100368.77
2022-12-31T14:14:43.428Z,100369.71
2022-12-31T14:16:13.087Z,100367.98
2022-12-31T14:17:37.020Z,100371.60
2022-12-31T14:20:38.442Z,100380.13
2022-12-31T14:21:48.378Z,100384.32
2022-12-31T14:23:06.561Z,100381.80
2022-12-31T14:24:33.668Z,100375.59
2022-12-31T14:26:02.244Z,100377.42
2022-12-31T14:27:08.352Z,100378.37
2022-12-31T14:28:14.472Z,100379.22
2022-12-31T14:30:49.475Z,100380.52
2022-12-31T14:31:58.729Z,100382.87
2022-12-31T14:33:21.398Z,100382.87
2022-12-31T14:34:52.975Z,100381.89
2022-12-31T14:37:42.522Z,100366.16
2022-12-31T14:38:58.515Z,100363.26
2022-12-31T14:40:20.920Z,100367.77
2022-12-31T14:41:31.639Z,100366.03
2022-12-31T14:42:59.167Z,100363.36
2022-12-31T14:45:47.748Z,100362.81
2022-12-31T14:47:06.103Z,100366.13
2022-12-31T14:48:33.406Z,100366.97